createdAt,value
2018-11-20T00:24:58.084Z,21
2018-11-20T00:25:47.576Z,21
2018-11-20T00:26:37.912Z,21
2018-11-20T00:27:28.259Z,21
2018-11-20T00:28:19.169Z,21
2018-11-20T00:29:07.611Z,21
2018-11-20T00:29:58.478Z,21
2018-11-20T00:30:48.286Z,21
2018-11-20T00:31:38.559Z,21
2018-11-20T00:32:28.130Z,21
2018-11-20T00:33:18.100Z,21
2018-11-20T00:34:08.428Z,21
2018-11-20T00:34:58.290Z,21
2018-11-20T00:35:49.156Z,20.9
2018-11-20T00:36:38.774Z,21
2018-11-20T00:37:28.993Z,20.9
2018-11-20T00:38:19.329Z,21
2018-11-20T00:39:09.107Z,21
2018-11-20T00:39:59.710Z,21
2018-11-20T00:40:49.750Z,21
2018-11-20T00:41:39.825Z,20.9
2018-11-20T00:42:30.391Z,21
2018-11-20T00:43:19.108Z,20.9
2018-11-20T00:44:09.720Z,20.9
2018-11-20T00:44:59.832Z,20.9
2018-11-20T00:45:50.078Z,21
2018-11-20T00:46:39.615Z,21
2018-11-20T00:47:29.251Z,20.9
2018-11-20T00:48:20.000Z,20.9
2018-11-20T00:49:09.780Z,21
2018-11-20T00:49:59.818Z,21
2018-11-20T00:50:50.713Z,20.9
2018-11-20T00:51:39.956Z,20.9
2018-11-20T00:52:29.134Z,20.9
2018-11-20T00:53:19.787Z,20.9
2018-11-20T00:54:09.947Z,21
2018-11-20T00:55:00.006Z,21
2018-11-20T00:55:50.065Z,20.9
2018-11-20T00:56:40.106Z,20.9
2018-11-20T00:57:30.667Z,20.9
2018-11-20T00:58:20.451Z,21
2018-11-20T00:59:11.309Z,20.9
2018-11-20T01:00:00.241Z,20.9
2018-11-20T01:00:50.305Z,20.9
2018-11-20T01:01:40.931Z,20.9
2018-11-20T01:02:30.311Z,20.9
2018-11-20T01:03:21.071Z,20.9
2018-11-20T01:04:10.537Z,20.9
2018-11-20T01:05:00.596Z,20.9
2018-11-20T01:05:51.231Z,20.9
2018-11-20T01:06:41.305Z,20.9
2018-11-20T01:07:31.071Z,20.9
2018-11-20T01:08:21.026Z,20.9
2018-11-20T01:09:11.166Z,20.9
2018-11-20T01:10:01.051Z,20.9
2018-11-20T01:10:51.351Z,20.9
2018-11-20T01:11:41.383Z,20.9
2018-11-20T01:12:31.663Z,20.9
2018-11-20T01:13:21.158Z,20.9
2018-11-20T01:14:11.823Z,20.9
2018-11-20T01:15:00.791Z,20.9
2018-11-20T01:15:52.200Z,20.9
2018-11-20T01:16:41.420Z,20.9
2018-11-20T01:17:31.733Z,20.9
2018-11-20T01:18:21.715Z,20.9
2018-11-20T01:19:11.884Z,20.9
2018-11-20T01:20:01.660Z,20.9
2018-11-20T01:20:51.767Z,20.9
2018-11-20T01:21:42.352Z,20.9
2018-11-20T01:22:32.415Z,20.9
2018-11-20T01:23:22.475Z,20.9
2018-11-20T01:24:11.965Z,20.9
2018-11-20T01:25:01.818Z,20.9
2018-11-20T01:25:52.357Z,20.9
2018-11-20T01:26:41.904Z,20.9
2018-11-20T01:27:32.252Z,20.9
2018-11-20T01:28:22.512Z,20.9
2018-11-20T01:29:12.097Z,20.9
2018-11-20T01:30:01.937Z,20.9
2018-11-20T01:30:52.974Z,20.9
2018-11-20T01:31:43.049Z,20.9
2018-11-20T01:32:32.522Z,20.9
2018-11-20T01:33:23.160Z,20.9
2018-11-20T01:34:12.446Z,20.9
2018-11-20T01:35:02.105Z,20.9
2018-11-20T01:35:53.056Z,20.9
2018-11-20T01:36:42.344Z,20.9
2018-11-20T01:37:32.688Z,20.9
2018-11-20T01:38:23.221Z,20.9
2018-11-20T01:39:13.164Z,20.9
2018-11-20T01:40:02.534Z,20.9
2018-11-20T01:40:52.911Z,20.9
2018-11-20T01:41:43.247Z,20.9
2018-11-20T01:42:32.738Z,20.9
2018-11-20T01:43:22.978Z,20.9
2018-11-20T01:44:13.754Z,20.9
2018-11-20T01:45:02.953Z,20.9
2018-11-20T01:45:53.815Z,20.9
2018-11-20T01:46:43.116Z,20.9
2018-11-20T01:47:33.846Z,20.9
2018-11-20T01:48:24.188Z,20.9
2018-11-20T01:49:13.293Z,20.9
2018-11-20T01:50:03.793Z,20.9
2018-11-20T01:50:53.703Z,20.9
2018-11-20T01:51:43.678Z,20.9
2018-11-20T01:52:33.638Z,20.9
2018-11-20T01:53:24.295Z,20.9
2018-11-20T01:54:14.608Z,20.9
2018-11-20T01:55:04.389Z,20.9
2018-11-20T01:55:54.765Z,20.9
2018-11-20T01:56:44.473Z,20.9
2018-11-20T01:57:33.683Z,20.9
2018-11-20T01:58:24.932Z,20.9
2018-11-20T01:59:14.970Z,20.9
2018-11-20T02:00:04.260Z,20.9
2018-11-20T02:00:54.528Z,20.9
2018-11-20T02:01:45.120Z,20.9
2018-11-20T02:02:35.150Z,20.9
2018-11-20T02:03:25.257Z,20.9
2018-11-20T02:04:15.831Z,20.9
2018-11-20T02:05:04.803Z,20.9
2018-11-20T02:05:55.670Z,20.9
2018-11-20T02:06:45.776Z,20.9
2018-11-20T02:07:35.517Z,20.9
2018-11-20T02:08:25.127Z,20.9
2018-11-20T02:09:15.884Z,20.9
2018-11-20T02:10:05.743Z,20.9
2018-11-20T02:10:55.473Z,20.9
2018-11-20T02:11:45.564Z,20.9
2018-11-20T02:12:35.899Z,20.9
2018-11-20T02:13:25.190Z,20.9
2018-11-20T02:14:15.716Z,20.9
2018-11-20T02:15:05.763Z,20.9
2018-11-20T02:15:56.112Z,20.9
2018-11-20T02:16:45.955Z,20.9
2018-11-20T02:17:35.642Z,20.9
2018-11-20T02:18:26.010Z,20.9
2018-11-20T02:19:16.392Z,20.9
2018-11-20T02:20:05.441Z,20.9
2018-11-20T02:20:56.476Z,20.9
2018-11-20T02:21:46.815Z,20.9
2018-11-20T02:22:36.338Z,20.8
2018-11-20T02:23:26.367Z,20.9
2018-11-20T02:24:16.026Z,20.9
2018-11-20T02:25:06.202Z,20.9
2018-11-20T02:25:56.809Z,20.9
2018-11-20T02:26:46.424Z,20.9
2018-11-20T02:27:36.928Z,20.9
2018-11-20T02:28:27.033Z,20.9
2018-11-20T02:29:16.500Z,20.9
2018-11-20T02:30:06.943Z,20.9
2018-11-20T02:30:56.609Z,20.9
2018-11-20T02:31:47.133Z,20.8
2018-11-20T02:32:36.743Z,20.8
2018-11-20T02:33:27.626Z,20.9
2018-11-20T02:34:17.431Z,20.8
2018-11-20T02:35:07.468Z,20.8
2018-11-20T02:35:56.681Z,20.8
2018-11-20T02:36:47.566Z,20.9
2018-11-20T02:37:37.668Z,20.9
2018-11-20T02:38:27.395Z,20.9
2018-11-20T02:39:17.489Z,20.8
2018-11-20T02:40:07.837Z,20.9
2018-11-20T02:40:57.460Z,20.9
2018-11-20T02:41:47.828Z,20.8
2018-11-20T02:42:38.020Z,20.8
2018-11-20T02:43:27.184Z,20.8
2018-11-20T02:44:17.895Z,20.9
2018-11-20T02:45:07.579Z,20.8
2018-11-20T02:45:57.592Z,20.8
2018-11-20T02:46:47.349Z,20.8
2018-11-20T02:47:38.082Z,20.9
2018-11-20T02:48:30.905Z,20.9
2018-11-20T02:49:17.296Z,20.8
2018-11-20T02:50:08.502Z,20.9
2018-11-20T02:50:58.000Z,20.8
2018-11-20T02:51:49.142Z,20.9
2018-11-20T02:52:38.679Z,20.8
2018-11-20T02:53:28.704Z,20.8
2018-11-20T02:54:18.350Z,20.8
2018-11-20T02:55:08.610Z,20.8
2018-11-20T02:55:58.444Z,20.8
2018-11-20T02:56:48.719Z,20.8
2018-11-20T02:57:38.561Z,20.8
2018-11-20T02:58:28.777Z,20.8
2018-11-20T02:59:18.649Z,20.8
2018-11-20T03:00:08.915Z,20.8
2018-11-20T03:00:58.790Z,20.8
2018-11-20T03:01:49.337Z,20.8
2018-11-20T03:02:38.806Z,20.8
2018-11-20T03:03:28.983Z,20.8
2018-11-20T03:04:18.919Z,20.8
2018-11-20T03:05:08.992Z,20.9
2018-11-20T03:05:59.064Z,20.8
2018-11-20T03:06:49.487Z,20.8
2018-11-20T03:07:38.902Z,20.8
2018-11-20T03:08:30.079Z,20.8
2018-11-20T03:09:19.592Z,20.8
2018-11-20T03:10:09.736Z,20.8
2018-11-20T03:11:00.064Z,20.8
2018-11-20T03:11:49.181Z,20.8
2018-11-20T03:12:39.321Z,20.8
2018-11-20T03:13:29.868Z,20.8
2018-11-20T03:14:19.631Z,20.8
2018-11-20T03:15:09.764Z,20.8
2018-11-20T03:15:59.775Z,20.8
2018-11-20T03:16:49.726Z,20.8
2018-11-20T03:17:40.538Z,20.8
2018-11-20T03:18:30.785Z,20.8
2018-11-20T03:19:19.987Z,20.8
2018-11-20T03:20:10.168Z,20.8
2018-11-20T03:21:00.988Z,20.8
2018-11-20T03:21:50.431Z,20.8
2018-11-20T03:22:40.497Z,20.8
2018-11-20T03:23:30.553Z,20.8
2018-11-20T03:24:20.348Z,20.8
2018-11-20T03:25:10.900Z,20.8
2018-11-20T03:26:01.013Z,20.8
2018-11-20T03:26:51.158Z,20.8
2018-11-20T03:27:41.132Z,20.8
2018-11-20T03:28:30.717Z,20.8
2018-11-20T03:29:20.994Z,20.8
2018-11-20T03:30:11.043Z,20.8
2018-11-20T03:31:01.167Z,20.8
2018-11-20T03:31:51.130Z,20.8
2018-11-20T03:32:41.081Z,20.8
2018-11-20T03:33:31.005Z,20.8
2018-11-20T03:34:21.681Z,20.8
2018-11-20T03:35:11.393Z,20.8
2018-11-20T03:36:01.798Z,20.8
2018-11-20T03:36:51.595Z,20.8
2018-11-20T03:37:41.529Z,20.8
2018-11-20T03:38:30.736Z,20.8
2018-11-20T03:39:21.387Z,20.8
2018-11-20T03:40:12.124Z,20.8
2018-11-20T03:41:01.799Z,20.8
2018-11-20T03:41:52.169Z,20.8
2018-11-20T03:42:41.726Z,20.8
2018-11-20T03:43:32.246Z,20.8
2018-11-20T03:44:22.593Z,20.8
2018-11-20T03:45:12.332Z,20.8
2018-11-20T03:46:02.096Z,20.8
2018-11-20T03:46:52.480Z,20.8
2018-11-20T03:47:42.127Z,20.8
2018-11-20T03:48:32.072Z,20.8
2018-11-20T03:49:22.201Z,20.8
2018-11-20T03:50:12.421Z,20.8
2018-11-20T03:51:02.484Z,20.8
2018-11-20T03:51:52.811Z,20.8
2018-11-20T03:52:42.259Z,20.8
2018-11-20T03:53:32.671Z,20.8
2018-11-20T03:54:22.253Z,20.8
2018-11-20T03:55:13.023Z,20.8
2018-11-20T03:56:02.824Z,20.8
2018-11-20T03:56:52.891Z,20.8
2018-11-20T03:57:42.555Z,20.8
2018-11-20T03:58:32.701Z,20.8
2018-11-20T03:59:23.108Z,20.8
2018-11-20T04:00:12.833Z,20.8
2018-11-20T04:01:02.920Z,20.8
2018-11-20T04:01:53.333Z,20.8
2018-11-20T04:02:43.299Z,20.8
2018-11-20T04:03:33.335Z,20.8
2018-11-20T04:04:23.126Z,20.8
2018-11-20T04:05:14.072Z,20.8
2018-11-20T04:06:03.541Z,20.8
2018-11-20T04:06:53.322Z,20.8
2018-11-20T04:07:43.655Z,20.8
2018-11-20T04:08:34.003Z,20.8
2018-11-20T04:09:23.782Z,20.8
2018-11-20T04:10:14.077Z,20.8
2018-11-20T04:11:03.622Z,20.8
2018-11-20T04:11:53.672Z,20.8
2018-11-20T04:12:44.267Z,20.8
2018-11-20T04:13:34.045Z,20.8
2018-11-20T04:14:24.407Z,20.8
2018-11-20T04:15:13.117Z,20.8
2018-11-20T04:16:04.247Z,20.8
2018-11-20T04:16:54.007Z,20.8
2018-11-20T04:17:45.475Z,20.8
2018-11-20T04:18:34.408Z,20.8
2018-11-20T04:19:24.361Z,20.8
2018-11-20T04:20:14.034Z,20.8
2018-11-20T04:21:04.122Z,20.8
2018-11-20T04:21:53.784Z,20.8
2018-11-20T04:22:44.134Z,20.8
2018-11-20T04:23:34.356Z,20.8
2018-11-20T04:24:24.829Z,20.8
2018-11-20T04:25:30.991Z,20.8
2018-11-20T04:26:05.234Z,20.8
2018-11-20T04:26:55.524Z,20.8
2018-11-20T04:27:45.131Z,20.8
2018-11-20T04:28:35.108Z,20.8
2018-11-20T04:29:24.379Z,20.8
2018-11-20T04:30:15.777Z,20.8
2018-11-20T04:31:06.061Z,20.8
2018-11-20T04:31:55.723Z,20.8
2018-11-20T04:32:45.190Z,20.8
2018-11-20T04:33:35.482Z,20.8
2018-11-20T04:34:25.799Z,20.8
2018-11-20T04:35:15.886Z,20.8
2018-11-20T04:36:05.911Z,20.8
2018-11-20T04:36:55.743Z,20.8
2018-11-20T09:08:39.813Z,20.6
2018-11-20T09:09:29.572Z,20.6
2018-11-20T09:10:19.131Z,20.6
2018-11-20T09:11:08.872Z,20.6
2018-11-20T09:11:59.617Z,20.6
2018-11-20T09:12:49.408Z,20.6
2018-11-20T09:13:40.062Z,20.6
2018-11-20T09:14:29.691Z,20.6
2018-11-20T09:15:19.811Z,20.6
2018-11-20T09:16:09.887Z,20.6
2018-11-20T09:17:00.437Z,20.6
2018-11-20T09:17:49.968Z,20.6
2018-11-20T09:18:40.057Z,20.6
2018-11-20T09:19:30.656Z,20.6
2018-11-20T09:20:21.594Z,20.6
2018-11-20T09:21:11.128Z,20.6
2018-11-20T09:22:00.204Z,20.6
2018-11-20T09:22:50.851Z,20.6
2018-11-20T09:23:40.888Z,20.6
2018-11-20T09:24:30.364Z,20.6
2018-11-20T09:25:19.577Z,20.6
2018-11-20T09:26:10.587Z,20.6
2018-11-20T09:27:00.922Z,20.6
2018-11-20T09:27:51.349Z,20.6
2018-11-20T09:28:40.753Z,20.6
2018-11-20T09:29:30.802Z,20.6
2018-11-20T09:30:20.316Z,20.6
2018-11-20T09:31:10.370Z,20.6
2018-11-20T09:32:00.386Z,20.6
2018-11-20T09:32:51.223Z,20.6
2018-11-20T09:33:41.093Z,20.6
2018-11-20T09:34:32.366Z,20.6
2018-11-20T09:35:22.133Z,20.6
2018-11-20T09:36:11.503Z,20.6
2018-11-20T09:37:01.321Z,20.6
2018-11-20T09:37:51.326Z,20.6
2018-11-20T09:38:41.375Z,20.6
2018-11-20T09:39:32.042Z,20.6
2018-11-20T09:40:20.904Z,20.6
2018-11-20T09:41:11.537Z,20.6
2018-11-20T09:42:01.845Z,20.6
2018-11-20T09:42:52.257Z,20.6
2018-11-20T09:43:41.422Z,20.6
2018-11-20T09:44:31.537Z,20.6
2018-11-20T09:45:21.254Z,20.6
2018-11-20T09:46:11.892Z,20.6
2018-11-20T09:47:01.487Z,20.6
2018-11-20T09:47:52.075Z,20.6
2018-11-20T09:48:41.875Z,20.6
2018-11-20T09:49:32.701Z,20.6
2018-11-20T09:50:22.415Z,20.6
2018-11-20T09:51:12.002Z,20.6
2018-11-20T09:52:02.113Z,20.6
2018-11-20T09:52:53.367Z,20.6
2018-11-20T09:53:42.129Z,20.6
2018-11-20T09:54:32.821Z,20.6
2018-11-20T09:55:22.499Z,20.6
2018-11-20T09:56:12.284Z,20.6
2018-11-20T09:57:02.649Z,20.6
2018-11-20T09:57:52.752Z,20.6
2018-11-20T09:58:43.036Z,20.6
2018-11-20T09:59:33.775Z,20.6
2018-11-20T10:00:23.443Z,20.6
2018-11-20T10:01:12.939Z,20.6
2018-11-20T10:02:02.995Z,20.6
2018-11-20T10:02:53.334Z,20.6
2018-11-20T10:03:43.165Z,20.6
2018-11-20T10:04:32.576Z,20.7
2018-11-20T10:05:23.464Z,20.7
2018-11-20T10:06:13.288Z,20.6
2018-11-20T10:07:04.263Z,20.7
2018-11-20T10:07:53.599Z,20.6
2018-11-20T10:08:43.916Z,20.6
2018-11-20T10:09:34.118Z,20.7
2018-11-20T10:10:22.696Z,20.7
2018-11-20T10:11:13.901Z,20.7
2018-11-20T10:12:03.396Z,20.7
2018-11-20T10:12:53.803Z,20.7
2018-11-20T10:13:44.055Z,20.7
2018-11-20T10:14:34.874Z,20.7
2018-11-20T10:15:24.260Z,20.7
2018-11-20T10:16:14.071Z,20.6
2018-11-20T10:17:03.721Z,20.6
2018-11-20T10:17:54.673Z,20.7
2018-11-20T10:18:43.850Z,20.6
2018-11-20T10:19:34.483Z,20.7
2018-11-20T10:20:24.820Z,20.7
2018-11-20T10:21:14.699Z,20.6
2018-11-20T10:22:05.374Z,20.7
2018-11-20T10:22:53.855Z,20.7
2018-11-20T10:23:44.422Z,20.7
2018-11-20T10:24:35.141Z,20.7
2018-11-20T10:25:25.818Z,20.7
2018-11-20T10:26:16.036Z,20.6
2018-11-20T10:27:05.013Z,20.7
2018-11-20T10:27:54.347Z,20.6
2018-11-20T10:28:45.160Z,20.6
2018-11-20T10:29:35.464Z,20.7
2018-11-20T10:30:24.953Z,20.6
2018-11-20T10:31:15.582Z,20.6
2018-11-20T10:32:05.065Z,20.6
2018-11-20T10:32:55.734Z,20.6
2018-11-20T10:33:45.712Z,20.7
2018-11-20T10:34:35.382Z,20.6
2018-11-20T10:35:25.463Z,20.6
2018-11-20T10:36:15.934Z,20.7
2018-11-20T10:37:05.107Z,20.7
2018-11-20T10:37:55.167Z,20.7
2018-11-20T10:38:45.239Z,20.7
2018-11-20T10:39:35.627Z,20.7
2018-11-20T10:40:25.724Z,20.7
2018-11-20T10:41:16.539Z,20.6
2018-11-20T10:42:04.949Z,20.6
2018-11-20T10:42:55.636Z,20.7
2018-11-20T10:43:45.953Z,20.6
2018-11-20T10:44:35.626Z,20.6
2018-11-20T10:45:26.009Z,20.6
2018-11-20T10:46:16.711Z,20.6
2018-11-20T10:47:06.141Z,20.7
2018-11-20T10:47:55.868Z,20.6
2018-11-20T10:48:46.279Z,20.7
2018-11-20T10:49:36.564Z,20.6
2018-11-20T10:50:26.959Z,20.6
2018-11-20T10:51:17.004Z,20.6
2018-11-20T10:52:05.976Z,20.6
2018-11-20T10:52:56.183Z,20.6
2018-11-20T10:53:46.588Z,20.6
2018-11-20T10:54:36.230Z,20.6
2018-11-20T10:55:26.782Z,20.6
2018-11-20T10:56:16.283Z,20.6
2018-11-20T10:57:06.818Z,20.6
2018-11-20T10:57:56.893Z,20.6
2018-11-20T10:58:46.884Z,20.7
2018-11-20T10:59:37.783Z,20.6
2018-11-20T11:00:27.118Z,20.6
2018-11-20T11:01:18.042Z,20.6
2018-11-20T11:02:06.664Z,20.6
2018-11-20T11:02:57.248Z,20.6
2018-11-20T11:03:46.552Z,20.6
2018-11-20T11:04:37.053Z,20.6
2018-11-20T11:05:27.342Z,20.6
2018-11-20T11:06:17.682Z,20.6
2018-11-20T11:07:11.407Z,20.6
2018-11-20T11:07:58.699Z,20.6
2018-11-20T11:08:47.977Z,20.6
2018-11-20T11:09:37.185Z,20.6
2018-11-20T11:10:27.154Z,20.6
2018-11-20T11:11:18.394Z,20.6
2018-11-20T11:12:09.939Z,20.6
2018-11-20T11:12:58.759Z,20.6
2018-11-20T11:13:48.804Z,20.6
2018-11-20T11:14:38.942Z,20.6
2018-11-20T11:15:28.074Z,20.6
2018-11-20T11:16:18.135Z,20.6
2018-11-20T11:17:09.256Z,20.6
2018-11-20T11:17:58.549Z,20.6
2018-11-20T11:18:48.117Z,20.6
2018-11-20T11:19:38.870Z,20.6
2018-11-20T11:20:29.386Z,20.6
2018-11-20T11:21:18.424Z,20.6
2018-11-20T11:22:09.118Z,20.6
2018-11-20T11:23:00.959Z,20.6
2018-11-20T11:23:48.971Z,20.6
2018-11-20T11:24:38.489Z,20.6
2018-11-20T11:25:29.067Z,20.6
2018-11-20T11:26:18.644Z,20.6
2018-11-20T11:27:08.621Z,20.6
2018-11-20T11:27:58.946Z,20.6
2018-11-20T11:28:52.579Z,20.6
2018-11-20T11:29:39.382Z,20.6
2018-11-20T11:30:29.099Z,20.6
2018-11-20T11:31:19.473Z,20.6
2018-11-20T11:32:09.241Z,20.6
2018-11-20T11:32:58.521Z,20.6
2018-11-20T11:33:49.148Z,20.6
2018-11-20T11:34:39.996Z,20.6
2018-11-20T11:35:29.283Z,20.6
2018-11-20T11:36:19.208Z,20.6
2018-11-20T11:37:10.253Z,20.6
2018-11-20T11:37:59.975Z,20.6
2018-11-20T11:38:50.262Z,20.6
2018-11-20T11:39:40.121Z,20.6
2018-11-20T11:40:30.147Z,20.6
2018-11-20T11:41:19.955Z,20.6
2018-11-20T11:42:10.043Z,20.6
2018-11-20T11:42:59.350Z,20.6
2018-11-20T11:43:50.097Z,20.6
2018-11-20T11:44:40.220Z,20.6
2018-11-20T11:45:29.380Z,20.6
2018-11-20T11:46:20.102Z,20.6
2018-11-20T11:47:10.825Z,20.6
2018-11-20T11:48:00.585Z,20.6
2018-11-20T11:48:50.099Z,20.6
2018-11-20T11:49:40.469Z,20.6
2018-11-20T11:50:30.046Z,20.6
2018-11-20T11:51:20.339Z,20.6
2018-11-20T11:52:10.980Z,20.6
2018-11-20T11:53:00.952Z,20.6
2018-11-20T11:53:50.402Z,20.6
2018-11-20T11:54:40.479Z,20.6
2018-11-20T11:55:30.852Z,20.6
2018-11-20T11:56:21.194Z,20.6
2018-11-20T11:57:11.227Z,20.6
2018-11-20T11:58:00.614Z,20.6
2018-11-20T11:58:50.860Z,20.6
2018-11-20T11:59:41.252Z,20.6
2018-11-20T12:00:31.499Z,20.6
2018-11-20T12:01:21.332Z,20.6
2018-11-20T12:03:51.531Z,20.6
2018-11-20T12:04:41.766Z,20.6
2018-11-20T12:05:31.101Z,20.6
2018-11-20T12:06:21.026Z,20.6
2018-11-20T12:07:11.781Z,20.6
2018-11-20T12:08:01.796Z,20.6
2018-11-20T12:08:52.043Z,20.6
2018-11-20T12:09:41.550Z,20.6
2018-11-20T12:10:36.651Z,20.6
2018-11-20T12:11:21.993Z,20.6
2018-11-20T12:12:11.798Z,20.6
2018-11-20T12:13:02.383Z,20.6
2018-11-20T12:13:51.632Z,20.6
2018-11-20T12:14:42.825Z,20.6
2018-11-20T12:15:32.288Z,20.6
2018-11-20T12:16:22.280Z,20.6
2018-11-20T12:17:12.040Z,20.6
2018-11-20T12:18:02.689Z,20.6
2018-11-20T12:18:51.778Z,20.6
2018-11-20T12:19:42.292Z,20.6
2018-11-20T12:20:32.288Z,20.6
2018-11-20T12:21:21.965Z,20.6
2018-11-20T12:22:12.197Z,20.6
2018-11-20T12:23:01.980Z,20.6
2018-11-20T12:23:52.610Z,20.6
2018-11-20T12:24:42.678Z,20.6
2018-11-20T12:25:32.425Z,20.6
2018-11-20T12:26:22.713Z,20.6
2018-11-20T12:27:12.846Z,20.6
2018-11-20T12:28:02.610Z,20.5
2018-11-20T12:28:59.003Z,20.6
2018-11-20T12:29:43.837Z,20.6
2018-11-20T12:30:32.588Z,20.6
2018-11-20T12:31:23.352Z,20.6
2018-11-20T12:32:13.104Z,20.6
2018-11-20T12:33:03.504Z,20.6
2018-11-20T12:33:53.192Z,20.6
2018-11-20T12:34:44.132Z,20.6
2018-11-20T12:35:40.999Z,20.6
2018-11-20T12:36:23.417Z,20.6
2018-11-20T12:37:13.920Z,20.5
2018-11-20T12:38:03.910Z,20.6
2018-11-20T12:38:53.362Z,20.6
2018-11-20T12:39:43.831Z,20.6
2018-11-20T12:40:34.689Z,20.6
2018-11-20T12:41:24.010Z,20.6
2018-11-20T12:42:14.089Z,20.6
2018-11-20T12:43:04.174Z,20.6
2018-11-20T12:43:57.512Z,20.6
2018-11-20T12:44:43.782Z,20.6
2018-11-20T12:45:37.474Z,20.6
2018-11-20T12:46:23.089Z,20.6
2018-11-20T12:47:16.602Z,20.6
2018-11-20T12:48:06.901Z,20.6
2018-11-20T12:48:56.281Z,20.5
2018-11-20T12:49:44.555Z,20.5
2018-11-20T12:50:34.641Z,20.5
2018-11-20T12:51:27.608Z,20.6
2018-11-20T12:52:15.368Z,20.5
2018-11-20T12:53:05.741Z,20.6
2018-11-20T12:53:54.731Z,20.5
2018-11-20T12:54:44.966Z,20.5
2018-11-20T12:55:38.738Z,20.5
2018-11-20T12:56:24.864Z,20.5
2018-11-20T12:57:16.248Z,20.5
2018-11-20T12:58:04.983Z,20.6
2018-11-20T12:58:56.780Z,20.5
2018-11-20T12:59:45.270Z,20.5
2018-11-20T13:00:39.419Z,20.5
2018-11-20T13:01:25.248Z,20.6
2018-11-20T13:02:16.739Z,20.6
2018-11-20T13:03:05.520Z,20.5
2018-11-20T13:03:54.993Z,20.5
2018-11-20T13:04:45.620Z,20.5
2018-11-20T13:05:36.559Z,20.5
2018-11-20T13:06:25.839Z,20.5
2018-11-20T13:07:16.358Z,20.5
2018-11-20T13:08:05.482Z,20.5
2018-11-20T13:08:55.624Z,20.5
2018-11-20T13:09:46.327Z,20.5
2018-11-20T13:10:35.752Z,20.5
2018-11-20T13:11:25.772Z,20.5
2018-11-20T13:12:15.582Z,20.5
2018-11-20T13:13:06.212Z,20.5
2018-11-20T13:14:00.055Z,20.5
2018-11-20T13:14:46.622Z,20.5
2018-11-20T13:15:36.929Z,20.5
2018-11-20T13:16:26.457Z,20.5
2018-11-20T13:17:18.679Z,20.5
2018-11-20T13:18:09.096Z,20.5
2018-11-20T13:18:57.871Z,20.5
2018-11-20T13:19:46.674Z,20.5
2018-11-20T13:20:37.266Z,20.5
2018-11-20T13:21:26.506Z,20.5
2018-11-20T13:22:17.129Z,20.5
2018-11-20T13:23:07.181Z,20.5
2018-11-20T13:23:57.534Z,20.5
2018-11-20T13:24:47.096Z,20.5
2018-11-20T13:25:37.364Z,20.5
2018-11-20T13:26:28.016Z,20.5
2018-11-20T13:27:16.906Z,20.5
2018-11-20T13:28:06.991Z,20.5
2018-11-20T13:28:57.016Z,20.5
2018-11-20T13:29:47.088Z,20.4
2018-11-20T13:30:37.825Z,20.4
2018-11-20T13:31:27.617Z,20.4
2018-11-20T13:32:17.611Z,20.5
2018-11-20T13:33:07.604Z,20.5
2018-11-20T13:33:59.113Z,20.5
2018-11-20T13:34:51.301Z,20.5
2018-11-20T13:35:37.571Z,20.4
2018-11-20T13:36:27.818Z,20.5
2018-11-20T13:37:19.288Z,20.5
2018-11-20T13:38:07.385Z,20.4
2018-11-20T13:38:57.708Z,20.4
2018-11-20T13:39:48.345Z,20.4
2018-11-20T13:40:37.643Z,20.4
2018-11-20T13:41:27.702Z,20.4
2018-11-20T13:42:18.249Z,20.4
2018-11-20T13:43:08.534Z,20.5
2018-11-20T13:43:58.952Z,20.4
2018-11-20T13:44:48.223Z,20.5
2018-11-20T13:45:38.168Z,20.4
2018-11-20T13:46:28.325Z,20.5
2018-11-20T13:47:18.108Z,20.4
2018-11-20T13:48:08.638Z,20.4
2018-11-20T13:48:58.687Z,20.4
2018-11-20T13:49:48.296Z,20.4
2018-11-20T13:50:38.882Z,20.4
2018-11-20T14:07:27.293Z,20.4
2018-11-20T14:08:16.987Z,20.4
2018-11-20T14:09:08.026Z,20.4
2018-11-20T14:09:57.275Z,20.4
2018-11-20T14:10:47.406Z,20.4
2018-11-20T14:11:51.868Z,20.4
2018-11-20T14:12:26.690Z,20.4
2018-11-20T14:13:17.649Z,20.4
2018-11-20T14:14:07.671Z,20.4
2018-11-20T14:14:57.724Z,20.4
2018-11-20T14:15:47.490Z,20.4
2018-11-20T14:16:37.810Z,20.4
2018-11-20T14:17:27.611Z,20.4
2018-11-20T14:18:18.065Z,20.4
2018-11-20T14:19:22.011Z,20.4
2018-11-20T14:19:58.341Z,20.4
2018-11-20T14:20:47.834Z,20.4
2018-11-20T14:21:38.301Z,20.4
2018-11-20T14:22:27.092Z,20.4
2018-11-20T14:23:18.158Z,20.4
2018-11-20T14:24:07.860Z,20.4
2018-11-20T14:24:57.732Z,20.4
2018-11-20T14:25:48.243Z,20.4
2018-11-20T14:26:52.905Z,20.4
2018-11-20T14:27:27.622Z,20.4
2018-11-20T14:28:33.493Z,20.4
2018-11-20T14:29:08.920Z,20.4
2018-11-20T14:30:13.686Z,20.4
2018-11-20T14:30:48.306Z,20.4
2018-11-20T14:31:38.339Z,20.4
2018-11-20T14:32:29.465Z,20.4
2018-11-20T14:33:18.424Z,20.4
2018-11-20T14:34:09.049Z,20.4
2018-11-20T14:34:59.329Z,20.4
2018-11-20T14:35:48.287Z,20.4
2018-11-20T14:36:53.877Z,20.4
2018-11-20T14:37:28.784Z,20.4
2018-11-20T14:38:18.727Z,20.4
2018-11-20T14:39:09.234Z,20.4
2018-11-20T14:39:58.871Z,20.4
2018-11-20T14:41:20.736Z,20.4
2018-11-20T14:41:39.391Z,20.4
2018-11-20T14:42:29.128Z,20.4
2018-11-20T14:43:19.146Z,20.4
2018-11-20T14:44:09.771Z,20.4
2018-11-20T14:44:59.534Z,20.4
2018-11-20T14:45:49.569Z,20.4
2018-11-20T14:46:39.831Z,20.4
2018-11-20T14:47:29.359Z,20.4
2018-11-20T14:48:19.156Z,20.4
2018-11-20T14:49:09.796Z,20.4
2018-11-20T14:49:59.866Z,20.4
2018-11-20T14:51:04.278Z,20.4
2018-11-20T14:51:39.488Z,20.4
2018-11-20T14:52:29.922Z,20.4
2018-11-20T14:53:20.375Z,20.4
2018-11-20T14:54:10.273Z,20.4
2018-11-20T14:54:59.727Z,20.4
2018-11-20T14:55:49.682Z,20.4
2018-11-20T14:56:40.892Z,20.4
2018-11-20T14:57:30.433Z,20.4
2018-11-20T14:58:20.590Z,20.4
2018-11-20T14:59:09.919Z,20.4
2018-11-20T15:00:00.726Z,20.4
2018-11-20T15:00:50.530Z,20.4
2018-11-20T15:01:40.365Z,20.4
2018-11-20T15:02:30.011Z,20.4
2018-11-20T15:03:21.063Z,20.4
2018-11-20T15:04:10.610Z,20.4
2018-11-20T15:05:01.114Z,20.4
2018-11-20T15:05:50.977Z,20.4
2018-11-20T15:06:40.900Z,20.4
2018-11-20T15:07:31.154Z,20.4
2018-11-20T15:08:20.831Z,20.4
2018-11-20T15:09:10.984Z,20.4
2018-11-20T15:10:00.647Z,20.4
2018-11-20T15:10:51.566Z,20.4
2018-11-20T15:11:41.727Z,20.4
2018-11-20T15:12:31.009Z,20.4
2018-11-20T15:13:21.839Z,20.4
2018-11-20T15:14:11.487Z,20.4
2018-11-20T15:15:01.943Z,20.4
2018-11-20T15:15:50.864Z,20.4
2018-11-20T15:16:41.681Z,20.4
2018-11-20T15:17:31.762Z,20.4
2018-11-20T15:18:22.163Z,20.4
2018-11-20T15:19:11.686Z,20.4
2018-11-20T15:20:02.173Z,20.4
2018-11-20T15:20:51.682Z,20.4
2018-11-20T15:21:41.763Z,20.4
2018-11-20T15:22:32.153Z,20.4
2018-11-20T15:23:22.472Z,20.4
2018-11-20T15:24:12.216Z,20.4
2018-11-20T15:25:03.072Z,20.4
2018-11-20T15:25:52.602Z,20.4
2018-11-20T15:26:41.708Z,20.4
2018-11-20T15:27:33.023Z,20.4
2018-11-20T15:28:22.753Z,20.4
2018-11-20T15:29:12.581Z,20.4
2018-11-20T15:30:02.651Z,20.4
2018-11-20T15:31:07.397Z,20.4
2018-11-20T15:31:42.536Z,20.4
2018-11-20T15:32:33.480Z,20.4
2018-11-20T15:33:22.898Z,20.4
2018-11-20T15:34:12.644Z,20.4
2018-11-20T15:35:03.516Z,20.4
2018-11-20T15:35:52.448Z,20.4
2018-11-20T15:36:43.444Z,20.4
2018-11-20T15:37:33.531Z,20.4
2018-11-20T15:38:23.089Z,20.4
2018-11-20T15:39:13.063Z,20.4
2018-11-20T15:40:03.409Z,20.4
2018-11-20T15:40:53.157Z,20.4
2018-11-20T15:41:44.398Z,20.4
2018-11-20T15:42:33.434Z,20.4
2018-11-20T15:43:23.552Z,20.4
2018-11-20T15:44:13.310Z,20.4
2018-11-20T15:45:04.400Z,20.4
2018-11-20T15:45:54.027Z,20.4
2018-11-20T15:46:59.173Z,20.4
2018-11-20T15:47:33.247Z,20.4
2018-11-20T15:48:24.064Z,20.4
2018-11-20T15:49:14.222Z,20.4
2018-11-20T15:50:04.450Z,20.4
2018-11-20T15:50:54.067Z,20.4
2018-11-20T15:51:44.169Z,20.4
2018-11-20T15:52:34.735Z,20.4
2018-11-20T15:53:24.530Z,20.4
2018-11-20T15:54:14.592Z,20.3
2018-11-20T15:55:04.282Z,20.4
2018-11-20T15:55:53.914Z,20.4
2018-11-20T15:56:44.791Z,20.4
2018-11-20T15:57:34.519Z,20.4
2018-11-20T15:58:25.689Z,20.3
2018-11-20T15:59:14.099Z,20.4
2018-11-20T16:00:05.149Z,20.4
2018-11-20T16:00:55.109Z,20.3
2018-11-20T16:01:45.124Z,20.4
2018-11-20T16:02:35.158Z,20.3
2018-11-20T16:03:26.494Z,20.3
2018-11-20T16:04:15.089Z,20.3
2018-11-20T16:05:04.784Z,20.3
2018-11-20T16:05:56.305Z,20.3
2018-11-20T16:06:44.883Z,20.3
2018-11-20T16:07:35.364Z,20.4
2018-11-20T16:08:25.379Z,20.4
2018-11-20T16:09:16.249Z,20.3
2018-11-20T16:10:05.418Z,20.3
2018-11-20T16:10:54.905Z,20.3
2018-11-20T16:11:45.534Z,20.3
2018-11-20T16:12:52.028Z,20.3
2018-11-20T16:13:25.126Z,20.3
2018-11-20T16:14:15.724Z,20.3
2018-11-20T16:15:05.773Z,20.3
2018-11-20T16:15:56.051Z,20.3
2018-11-20T16:16:46.090Z,20.3
2018-11-20T16:17:36.028Z,20.3
2018-11-20T16:18:26.013Z,20.3
2018-11-20T16:19:15.389Z,20.3
2018-11-20T16:20:20.212Z,20.3
2018-11-20T16:21:10.821Z,20.3